• Join FlightAware (Why Join?)
  • Login
  • US Flag 
10:27PM EDT


 

Airport Tracker/Info


-or-


 

Live Flight TrackerFlight Track Log ✈ N109EA ✈ 02-May-2013 ✈ KHAO - KHTW

Flight Track Log - Related Links

Times and Time Zones

All times are in EDT time to prevent confusion due to time zone crossing. See the N109EA flight status page for this flight to view local times or setup timezone preferences in your user account.

Time Position Orientation Groundspeed Altitude Reporting Facility
EDT Latitude Longitude Course Direction KTS MPH feet Rate Location/Type
05:35PM 39.3500 -84.4667 90° East 97 112 2,300  Level Cincinnati TRACON
05:36PM 39.3333 -84.4333 123° Southeast 101 116 3,200 780 Climbing Cincinnati TRACON
05:37PM 39.3275 -84.4397 220° Southwest 96 110 3,400 840 Climbing Indianapolis Center
05:38PM 39.3131 -84.4064 119° Southeast 102 117 4,400 960 Climbing Indianapolis Center
05:39PM 39.2953 -84.3667 120° Southeast 106 122 5,500 780 Climbing Indianapolis Center
05:40PM 39.2786 -84.3292 120° Southeast 111 128 6,100 480 Climbing Indianapolis Center
05:41PM 39.2622 -84.2878 117° Southeast 123 142 6,600 420 Climbing Indianapolis Center
05:42PM 39.2425 -84.2442 120° Southeast 135 155 7,000 420 Climbing Indianapolis Center
05:43PM 39.2236 -84.2017 120° Southeast 136 157 7,500 480 Climbing Indianapolis Center
05:44PM 39.2058 -84.1614 120° Southeast 131 151 8,100 480 Climbing Indianapolis Center
05:45PM 39.1872 -84.1269 125° Southeast 119 137 8,600 360 Climbing Indianapolis Center
05:46PM 39.1625 -84.0825 126° Southeast 131 151 8,900 60 Climbing Indianapolis Center
05:47PM 39.1364 -84.0389 128° Southeast 150 173 8,800 -60 Descending Indianapolis Center
05:48PM 39.1103 -83.9944 127° Southeast 153 176 8,800  Level Indianapolis Center
05:49PM 39.0883 -83.9492 122° Southeast 150 173 8,900  Climbing Indianapolis Center
05:50PM 39.0672 -83.9011 119° Southeast 152 175 8,900  Level Indianapolis Center
05:51PM 39.0467 -83.8553 120° Southeast 148 170 8,900  Level Indianapolis Center
05:52PM 39.0261 -83.8086 120° Southeast 148 170 8,900  Level Indianapolis Center
05:53PM 39.0019 -83.7550 120° Southeast 148 170 8,900  Level Indianapolis Center
05:54PM 38.9808 -83.7103 121° Southeast 145 167 8,900  Level Indianapolis Center
05:55PM 38.9603 -83.6644 120° Southeast 147 169 8,900  Level Indianapolis Center
05:56PM 38.9392 -83.6175 120° Southeast 149 171 8,900  Level Indianapolis Center
05:57PM 38.9181 -83.5717 121° Southeast 149 171 8,900  Level Indianapolis Center
05:58PM 38.8983 -83.5264 119° Southeast 144 166 8,900  Level Indianapolis Center
05:59PM 38.8775 -83.4814 121° Southeast 145 167 8,900  Level Indianapolis Center
06:00PM 38.8531 -83.4297 121° Southeast 143 165 8,900  Level Indianapolis Center
06:02PM 38.8339 -83.3861 119° Southeast 141 162 8,900  Level Indianapolis Center
06:03PM 38.8142 -83.3428 120° Southeast 139 160 8,900  Level Indianapolis Center
06:04PM 38.7928 -83.2978 121° Southeast 145 167 8,900 -240 Level Indianapolis Center
06:05PM 38.7719 -83.2511 120° Southeast 150 173 8,500 -540 Descending Indianapolis Center
06:06PM 38.7489 -83.2000 120° Southeast 161 185 7,900 -540 Descending Indianapolis Center
06:07PM 38.7250 -83.1486 121° Southeast 161 185 7,400 -540 Descending Indianapolis Center
06:08PM 38.7031 -83.1008 120° Southeast 157 181 6,800 -660 Descending Indianapolis Center
06:09PM 38.6761 -83.0417 120° Southeast 160 184 6,100 -660 Descending Indianapolis Center
06:10PM 38.6531 -82.9944 122° Southeast 157 181 5,500 -540 Descending Indianapolis Center
06:11PM 38.6333 -82.9478 118° Southeast 160 184 5,000 -300 Descending Indianapolis Center
06:12PM 38.6083 -82.8961 122° Southeast 146 168 4,900 -60 Descending Indianapolis Center
06:13PM 38.5872 -82.8508 121° Southeast 148 170 4,900  Level Indianapolis Center
06:14PM 38.5661 -82.8044 120° Southeast 150 173 4,900 -300 Level Indianapolis Center
06:15PM 38.5436 -82.7572 121° Southeast 155 178 4,300 -660 Descending Indianapolis Center
06:16PM 38.5231 -82.7117 120° Southeast 151 174 3,600 -600 Descending Indianapolis Center
06:17PM 38.4989 -82.6608 121° Southeast 150 173 3,100 -540 Descending Indianapolis Center
06:19PM 38.4683 -82.6013 123° Southeast  Level FlightAware Approximate
06:26PM 38.4193 -82.4943 113° Southeast  Level Estimated